Time;durP1;ratioP1;P1;durP2;ratioP2;P2;SDS_P1;SDS_P2;PMS_P1;PMS_P2;Temp;Humidity;BMP_temperature;BMP_pressure;BME280_temperature;BME280_humidity;BME280_pressure;Samples;Min_cycle;Max_cycle;Signal;HPM_P1;HPM_P2
2024/01/17 00:00:24;;;;;;;;;;;;;;;-5.14;100.00;95128.50;5047034;28;19930;-72
2024/01/17 00:02:50;;;;;;;;;;;;;;;-5.14;100.00;95125.97;5030892;28;19992;-75
2024/01/17 00:05:15;;;;;;;;;;;;;;;-5.12;100.00;95138.59;5048022;28;19970;-74
2024/01/17 00:07:41;;;;;;;;;;;;;;;-5.14;100.00;95133.63;5030805;28;19936;-73
2024/01/17 00:10:09;;;;;;;;;;;;;;;-5.13;100.00;95119.88;5047423;28;19937;-73
2024/01/17 00:12:34;;;;;;;;;;;;;;;-5.11;100.00;95115.41;5048003;28;19936;-75
2024/01/17 00:15:00;;;;;;;;;;;;;;;-5.10;100.00;95111.13;5030697;28;20279;-73
2024/01/17 00:17:26;;;;;;;;;;;;;;;-5.13;100.00;95107.09;5047537;28;19962;-74
2024/01/17 00:19:52;;;;;;;;;;;;;;;-5.10;100.00;95101.69;5065438;28;19959;-72
2024/01/17 00:22:18;;;;;;;;;;;;;;;-5.10;100.00;95100.91;5046990;28;20151;-76
2024/01/17 00:24:45;;;;;;;;;;;;;;;-5.09;100.00;95087.16;5047824;28;20089;-71
2024/01/17 00:27:13;;;;;;;;;;;;;;;-5.08;100.00;95083.66;5047700;28;19930;-71
2024/01/17 00:29:39;;;;;;;;;;;;;;;-5.06;100.00;95101.38;5047713;28;19942;-72
2024/01/17 00:32:05;;;;;;;;;;;;;;;-5.06;100.00;95096.25;5047053;28;19938;-71
2024/01/17 00:34:30;;;;;;;;;;;;;;;-5.05;100.00;95085.09;5046899;28;19967;-71
2024/01/17 00:36:56;;;;;;;;;;;;;;;-5.06;100.00;95089.41;5047720;28;20200;-72
2024/01/17 00:39:25;;;;;;;;;;;;;;;-5.05;100.00;95069.75;5065320;28;20243;-71
2024/01/17 00:41:51;;;;;;;;;;;;;;;-5.04;100.00;95069.63;5064994;28;19926;-71
2024/01/17 00:44:18;;;;;;;;;;;;;;;-5.03;100.00;95062.75;5047177;28;20010;-71
2024/01/17 00:46:44;;;;;;;;;;;;;;;-5.02;100.00;95064.31;5046771;28;19942;-71
2024/01/17 00:49:13;;;;;;;;;;;;;;;-5.01;100.00;95053.94;5047353;28;19935;-71
2024/01/17 00:51:39;;;;;;;;;;;;;;;-5.01;100.00;95051.41;5064872;28;19935;-70
2024/01/17 00:54:05;;;;;;;;;;;;;;;-5.00;100.00;95049.63;5064309;28;19941;-71
2024/01/17 00:56:35;;;;;;;;;;;;;;;-4.98;100.00;95052.84;5046572;28;20163;-71
2024/01/17 00:59:01;;;;;;;;;;;;;;;-4.94;100.00;95052.38;5046502;28;19930;-74
2024/01/17 01:01:27;;;;;;;;;;;;;;;-4.92;100.00;95054.78;5064231;28;20212;-71
2024/01/17 01:03:53;;;;;;;;;;;;;;;-4.90;100.00;95063.09;5046525;28;19947;-70
2024/01/17 01:06:19;;;;;;;;;;;;;;;-4.91;100.00;95059.72;5064606;28;19935;-72
2024/01/17 01:08:45;;;;;;;;;;;;;;;-4.91;100.00;95062.28;5046247;28;19954;-71
2024/01/17 01:11:11;;;;;;;;;;;;;;;-4.96;100.00;95061.94;5063663;28;19936;-71
2024/01/17 01:13:37;;;;;;;;;;;;;;;-4.99;100.00;95059.72;5046776;28;20205;-71
2024/01/17 01:16:03;;;;;;;;;;;;;;;-4.98;100.00;95057.94;5047110;28;19977;-79
2024/01/17 01:18:30;;;;;;;;;;;;;;;-4.95;100.00;95055.09;5063832;28;20300;-71
2024/01/17 01:20:57;;;;;;;;;;;;;;;-4.93;100.00;95048.88;5046850;28;20235;-72
2024/01/17 01:23:24;;;;;;;;;;;;;;;-4.89;100.00;95041.69;5064576;28;19954;-71
2024/01/17 01:25:50;;;;;;;;;;;;;;;-4.87;100.00;95044.06;5064475;28;19931;-72
2024/01/17 01:28:16;;;;;;;;;;;;;;;-4.84;100.00;95048.88;5046199;28;19938;-72
2024/01/17 01:30:42;;;;;;;;;;;;;;;-4.82;100.00;95052.88;5064373;28;19932;-71
2024/01/17 01:33:08;;;;;;;;;;;;;;;-4.81;100.00;95049.34;5063818;28;19955;-70
2024/01/17 01:35:33;;;;;;;;;;;;;;;-4.81;100.00;95049.34;5030355;28;20108;-75
2024/01/17 01:37:59;;;;;;;;;;;;;;;-4.81;100.00;95046.00;5063727;28;20237;-70
2024/01/17 01:40:25;;;;;;;;;;;;;;;-4.82;100.00;95050.31;5046333;28;19932;-69
2024/01/17 01:42:53;;;;;;;;;;;;;;;-4.78;100.00;95043.94;5046497;28;19966;-70
2024/01/17 01:45:19;;;;;;;;;;;;;;;-4.77;100.00;95040.41;5045822;28;19938;-70
2024/01/17 01:47:45;;;;;;;;;;;;;;;-4.75;100.00;95033.38;5064232;28;19945;-70
2024/01/17 01:50:11;;;;;;;;;;;;;;;-4.72;100.00;95032.28;5045893;28;19935;-70
2024/01/17 01:52:38;;;;;;;;;;;;;;;-4.70;100.00;95030.38;5046685;28;20226;-72
2024/01/17 01:55:05;;;;;;;;;;;;;;;-4.71;100.00;95021.88;5064100;28;19930;-72
2024/01/17 01:57:31;;;;;;;;;;;;;;;-4.78;100.00;95003.03;5045895;28;19969;-72
2024/01/17 01:59:57;;;;;;;;;;;;;;;-4.85;100.00;95011.47;5030111;28;19969;-72
2024/01/17 02:02:23;;;;;;;;;;;;;;;-4.90;100.00;95022.19;5046408;28;19955;-72
2024/01/17 02:04:52;;;;;;;;;;;;;;;-4.88;100.00;95014.34;5063645;28;20100;-72
2024/01/17 02:07:18;;;;;;;;;;;;;;;-4.85;100.00;95008.91;5063480;28;19926;-72
2024/01/17 02:09:45;;;;;;;;;;;;;;;-4.82;100.00;95000.94;5063417;28;20150;-71
2024/01/17 02:12:11;;;;;;;;;;;;;;;-4.84;100.00;95003.66;5045587;28;19950;-72
2024/01/17 02:14:39;;;;;;;;;;;;;;;-4.86;100.00;94986.88;5029309;28;20146;-75
2024/01/17 02:17:05;;;;;;;;;;;;;;;-4.84;100.00;94988.31;5063689;28;19963;-74
2024/01/17 02:19:31;;;;;;;;;;;;;;;-4.82;100.00;94985.59;5045631;28;19946;-75
2024/01/17 02:21:57;;;;;;;;;;;;;;;-4.87;100.00;94986.09;5064507;28;19967;-76
2024/01/17 02:24:23;;;;;;;;;;;;;;;-4.88;100.00;94970.91;5032762;28;19954;-75
2024/01/17 02:26:49;;;;;;;;;;;;;;;-4.87;100.00;94959.69;5067059;28;19932;-74
2024/01/17 02:29:15;;;;;;;;;;;;;;;-4.84;100.00;94954.28;5067586;28;20095;-74
2024/01/17 02:31:43;;;;;;;;;;;;;;;-4.84;100.00;94955.06;5067479;28;20104;-74
2024/01/17 02:34:09;;;;;;;;;;;;;;;-4.84;100.00;94957.63;5049767;28;19942;-73
2024/01/17 02:36:35;;;;;;;;;;;;;;;-4.86;100.00;94966.41;5049705;28;19945;-74
2024/01/17 02:39:00;;;;;;;;;;;;;;;-4.87;100.00;94963.06;5033382;28;20256;-74
2024/01/17 02:41:26;;;;;;;;;;;;;;;-4.85;100.00;94952.66;5033143;28;20220;-74
2024/01/17 02:43:52;;;;;;;;;;;;;;;-4.87;100.00;94946.91;5066663;28;20258;-73
2024/01/17 02:46:18;;;;;;;;;;;;;;;-4.86;100.00;94944.19;5032322;28;20026;-74
2024/01/17 02:48:44;;;;;;;;;;;;;;;-4.81;100.00;94924.06;5067203;28;19935;-69
2024/01/17 02:51:10;;;;;;;;;;;;;;;-4.79;100.00;94931.56;5067398;28;20110;-73
2024/01/17 02:53:36;;;;;;;;;;;;;;;-4.84;100.00;94918.50;5067379;28;19933;-73
2024/01/17 02:56:02;;;;;;;;;;;;;;;-4.87;100.00;94926.47;5067045;28;19933;-73
2024/01/17 02:58:27;;;;;;;;;;;;;;;-4.88;100.00;94920.56;5048660;28;19940;-72
2024/01/17 03:00:53;;;;;;;;;;;;;;;-4.86;100.00;94913.53;5048728;28;20246;-72
2024/01/17 03:03:19;;;;;;;;;;;;;;;-4.83;100.00;94909.84;5066836;28;19948;-72
2024/01/17 03:05:45;;;;;;;;;;;;;;;-4.78;100.00;94908.41;5066391;28;19938;-68
2024/01/17 03:08:11;;;;;;;;;;;;;;;-4.72;100.00;94905.22;5048999;28;19947;-73
2024/01/17 03:10:36;;;;;;;;;;;;;;;-4.63;100.00;94897.53;5066294;28;19930;-75
2024/01/17 03:13:02;;;;;;;;;;;;;;;-4.56;100.00;94898.47;5066215;28;19966;-74
2024/01/17 03:15:28;;;;;;;;;;;;;;;-4.49;100.00;94899.44;5048393;28;19944;-73
2024/01/17 03:17:55;;;;;;;;;;;;;;;-4.46;100.00;94901.66;5031955;28;19973;-73
2024/01/17 03:20:21;;;;;;;;;;;;;;;-4.44;100.00;94892.06;5048175;28;20025;-74
2024/01/17 03:22:47;;;;;;;;;;;;;;;-4.40;100.00;94897.66;5048702;28;19994;-74
2024/01/17 03:25:15;;;;;;;;;;;;;;;-4.34;100.00;94899.56;5066486;28;19932;-78
2024/01/17 03:27:41;;;;;;;;;;;;;;;-4.31;100.00;94892.34;5066525;28;19953;-72
2024/01/17 03:30:08;;;;;;;;;;;;;;;-4.24;100.00;94891.69;5065871;28;19945;-72
2024/01/17 03:32:33;;;;;;;;;;;;;;;-4.23;100.00;94877.94;5066458;28;20213;-72
2024/01/17 03:34:59;;;;;;;;;;;;;;;-4.20;100.00;94873.28;5047726;28;19942;-73
2024/01/17 03:37:25;;;;;;;;;;;;;;;-4.14;100.00;94866.69;5048026;28;19939;-72
2024/01/17 03:39:51;;;;;;;;;;;;;;;-4.11;100.00;94851.03;5066260;28;19996;-72
2024/01/17 03:42:17;;;;;;;;;;;;;;;-4.07;100.00;94844.59;5047956;28;19934;-77
2024/01/17 03:44:43;;;;;;;;;;;;;;;-4.01;100.00;94841.38;5047926;28;19993;-72
2024/01/17 03:47:10;;;;;;;;;;;;;;;-3.93;100.00;94840.53;5031966;28;19943;-77
2024/01/17 03:49:36;;;;;;;;;;;;;;;-3.87;100.00;94853.44;5066378;28;19936;-77
2024/01/17 03:52:02;;;;;;;;;;;;;;;-3.80;100.00;94848.47;5047721;28;19942;-79
2024/01/17 03:54:28;;;;;;;;;;;;;;;-3.75;100.00;94843.63;5065725;28;19972;-78
2024/01/17 03:56:53;;;;;;;;;;;;;;;-3.71;100.00;94834.66;5031089;28;19935;-78
2024/01/17 03:59:19;;;;;;;;;;;;;;;-3.67;100.00;94823.09;5065857;28;19968;-78
2024/01/17 04:01:46;;;;;;;;;;;;;;;-3.62;100.00;94821.78;5065318;28;19940;-70
2024/01/17 04:04:11;;;;;;;;;;;;;;;-3.58;100.00;94823.06;5047513;28;19953;-78
2024/01/17 04:06:37;;;;;;;;;;;;;;;-3.56;100.00;94811.66;5065158;28;19940;-78
2024/01/17 04:09:03;;;;;;;;;;;;;;;-3.52;100.00;94799.31;5031147;28;19951;-78
2024/01/17 04:11:29;;;;;;;;;;;;;;;-3.49;100.00;94792.06;5065608;28;20292;-77
2024/01/17 04:13:55;;;;;;;;;;;;;;;-3.44;100.00;94785.63;5065855;28;19934;-78
2024/01/17 04:16:21;;;;;;;;;;;;;;;-3.40;100.00;94794.56;5047160;28;19934;-81
2024/01/17 04:18:47;;;;;;;;;;;;;;;-3.38;100.00;94787.50;5047909;28;19943;-75
2024/01/17 04:21:18;;;;;;;;;;;;;;;-3.38;100.00;94780.63;5064941;28;20121;-81
2024/01/17 04:23:44;;;;;;;;;;;;;;;-3.36;100.00;94778.69;5047250;28;19952;-80
2024/01/17 04:26:23;;;;;;;;;;;;;;;-3.36;100.00;94767.63;5065595;28;19956;-81
2024/01/17 04:28:50;;;;;;;;;;;;;;;-3.39;100.00;94767.97;5047655;28;19941;-81
2024/01/17 04:31:23;;;;;;;;;;;;;;;-3.48;100.00;94746.75;5047629;28;19935;-81
2024/01/17 04:33:49;;;;;;;;;;;;;;;-3.51;100.00;94745.34;5064666;28;19928;-82
2024/01/17 04:36:16;;;;;;;;;;;;;;;-3.48;100.00;94733.94;5064884;28;19942;-81
2024/01/17 04:38:42;;;;;;;;;;;;;;;-3.45;100.00;94725.13;5046775;28;19938;-77
2024/01/17 04:41:12;;;;;;;;;;;;;;;-3.41;100.00;94718.66;5047481;28;19945;-69
2024/01/17 04:43:40;;;;;;;;;;;;;;;-3.36;100.00;94708.69;5030161;28;19953;-70
2024/01/17 04:46:07;;;;;;;;;;;;;;;-3.33;100.00;94706.56;5046417;28;19937;-70
2024/01/17 04:48:33;;;;;;;;;;;;;;;-3.30;100.00;94688.31;5064422;28;19938;-69
2024/01/17 04:50:59;;;;;;;;;;;;;;;-3.26;100.00;94686.94;5064418;28;20020;-69
2024/01/17 04:53:25;;;;;;;;;;;;;;;-3.23;100.00;94688.41;5046629;28;19940;-70
2024/01/17 04:55:51;;;;;;;;;;;;;;;-3.18;100.00;94688.66;5064313;28;19959;-72
2024/01/17 04:58:17;;;;;;;;;;;;;;;-3.12;100.00;94684.59;5046503;28;20190;-70
2024/01/17 05:00:46;;;;;;;;;;;;;;;-3.08;100.00;94681.50;5047174;28;19957;-73
2024/01/17 05:03:13;;;;;;;;;;;;;;;-3.00;100.00;94677.25;5047109;28;19980;-73
2024/01/17 05:05:41;;;;;;;;;;;;;;;-2.96;100.00;94673.34;5064094;28;20235;-75
2024/01/17 05:08:07;;;;;;;;;;;;;;;-2.92;100.00;94666.88;5064279;28;19941;-74
2024/01/17 05:10:32;;;;;;;;;;;;;;;-2.87;100.00;94659.47;5064133;28;19935;-73
2024/01/17 05:12:58;;;;;;;;;;;;;;;-2.83;100.00;94650.44;5064640;28;19964;-74
2024/01/17 05:15:24;;;;;;;;;;;;;;;-2.78;100.00;94645.56;5064366;28;19934;-70
2024/01/17 05:17:50;;;;;;;;;;;;;;;-2.73;100.00;94635.56;5046490;28;19959;-82
2024/01/17 05:20:17;;;;;;;;;;;;;;;-2.69;100.00;94634.25;5064008;28;19976;-82
2024/01/17 05:22:43;;;;;;;;;;;;;;;-2.62;100.00;94623.25;5063929;28;19930;-82
2024/01/17 05:25:11;;;;;;;;;;;;;;;-2.58;100.00;94606.50;5063949;28;19933;-82
2024/01/17 05:27:37;;;;;;;;;;;;;;;-2.52;100.00;94603.22;5064483;28;20085;-78
2024/01/17 05:30:09;;;;;;;;;;;;;;;-2.47;100.00;94599.13;5063916;28;19927;-78
2024/01/17 05:32:37;;;;;;;;;;;;;;;-2.42;100.00;94590.88;5064658;28;19934;-70
2024/01/17 05:35:04;;;;;;;;;;;;;;;-2.38;100.00;94591.31;5064510;28;20141;-79
2024/01/17 05:37:30;;;;;;;;;;;;;;;-2.32;100.00;94595.72;5064339;28;19936;-73
2024/01/17 05:39:56;;;;;;;;;;;;;;;-2.30;100.00;94589.41;5063805;28;20224;-74
2024/01/17 05:42:21;;;;;;;;;;;;;;;-2.24;100.00;94590.47;5063771;28;19957;-74
2024/01/17 05:44:47;;;;;;;;;;;;;;;-2.21;100.00;94587.50;5064495;28;19948;-74
2024/01/17 05:47:13;;;;;;;;;;;;;;;-2.18;100.00;94565.81;5045900;28;20276;-74
2024/01/17 05:49:39;;;;;;;;;;;;;;;-2.16;100.00;94574.94;5046613;28;19954;-73
2024/01/17 05:52:05;;;;;;;;;;;;;;;-2.16;100.00;94564.66;5046886;28;19941;-74
2024/01/17 05:54:31;;;;;;;;;;;;;;;-2.16;100.00;94563.84;5045834;28;19982;-73
2024/01/17 05:56:57;;;;;;;;;;;;;;;-2.20;100.00;94563.44;5030518;28;20145;-73
2024/01/17 05:59:24;;;;;;;;;;;;;;;-2.22;100.00;94554.34;5050412;28;19936;-73
2024/01/17 06:01:50;;;;;;;;;;;;;;;-2.23;100.00;94550.16;5049807;28;19934;-72
2024/01/17 06:04:16;;;;;;;;;;;;;;;-2.22;100.00;94544.84;5050550;28;19971;-73
2024/01/17 06:06:42;;;;;;;;;;;;;;;-2.19;100.00;94531.63;5033904;28;19933;-73
2024/01/17 06:09:08;;;;;;;;;;;;;;;-2.16;100.00;94531.28;5050221;28;19934;-73
2024/01/17 06:11:34;;;;;;;;;;;;;;;-2.14;100.00;94531.88;5033870;28;19941;-72
2024/01/17 06:14:00;;;;;;;;;;;;;;;-2.11;100.00;94528.94;5067392;28;19927;-72
2024/01/17 06:16:26;;;;;;;;;;;;;;;-2.11;100.00;94517.88;5032772;28;19962;-73
2024/01/17 06:18:51;;;;;;;;;;;;;;;-2.12;100.00;94521.41;5050358;28;19938;-72
2024/01/17 06:21:17;;;;;;;;;;;;;;;-2.14;100.00;94521.63;5067838;28;19937;-72
2024/01/17 06:23:44;;;;;;;;;;;;;;;-2.15;100.00;94493.56;5049935;28;20040;-73
2024/01/17 06:26:10;;;;;;;;;;;;;;;-2.16;100.00;94495.34;5067618;28;20295;-72
2024/01/17 06:28:35;;;;;;;;;;;;;;;-2.18;100.00;94487.03;5067127;28;19938;-73
2024/01/17 06:31:04;;;;;;;;;;;;;;;-2.15;100.00;94489.19;5049479;28;19939;-77
2024/01/17 06:33:30;;;;;;;;;;;;;;;-2.13;100.00;94482.09;5032782;28;19942;-79
2024/01/17 06:35:56;;;;;;;;;;;;;;;-2.09;100.00;94487.66;5032762;28;19941;-79
2024/01/17 06:38:22;;;;;;;;;;;;;;;-2.05;100.00;94486.31;5049050;28;19939;-79
2024/01/17 06:40:48;;;;;;;;;;;;;;;-1.99;100.00;94479.66;5049182;28;19968;-79
2024/01/17 06:43:14;;;;;;;;;;;;;;;-1.97;100.00;94478.47;5033290;28;19960;-79
2024/01/17 06:45:40;;;;;;;;;;;;;;;-1.92;100.00;94468.41;5032511;28;19941;-79
2024/01/17 06:48:06;;;;;;;;;;;;;;;-1.90;100.00;94473.38;5066351;28;19936;-73
2024/01/17 06:50:31;;;;;;;;;;;;;;;-1.89;100.00;94473.19;5049937;28;19938;-73
2024/01/17 06:52:57;;;;;;;;;;;;;;;-1.90;100.00;94465.66;5066671;28;19984;-72
2024/01/17 06:55:23;;;;;;;;;;;;;;;-1.89;100.00;94464.66;5067101;28;19934;-72
2024/01/17 06:57:49;;;;;;;;;;;;;;;-1.86;100.00;94454.81;5066834;28;19936;-73
2024/01/17 07:00:15;;;;;;;;;;;;;;;-1.82;100.00;94452.66;5049369;28;19931;-72
2024/01/17 07:02:41;;;;;;;;;;;;;;;-1.79;100.00;94469.47;5066459;28;19939;-72
2024/01/17 07:05:07;;;;;;;;;;;;;;;-1.80;100.00;94467.91;5066426;28;20170;-70
2024/01/17 07:07:33;;;;;;;;;;;;;;;-1.80;100.00;94450.69;5048582;28;20128;-73
2024/01/17 07:09:58;;;;;;;;;;;;;;;-1.78;100.00;94445.38;5047414;28;19933;-74
2024/01/17 07:12:24;;;;;;;;;;;;;;;-1.77;100.00;94444.38;5048585;28;19939;-74
2024/01/17 07:14:54;;;;;;;;;;;;;;;-1.76;100.00;94426.22;5049110;28;19933;-74
2024/01/17 07:17:19;;;;;;;;;;;;;;;-1.74;100.00;94428.56;5066048;28;19984;-74
2024/01/17 07:19:45;;;;;;;;;;;;;;;-1.73;100.00;94425.03;5048797;28;19933;-74
2024/01/17 07:22:13;;;;;;;;;;;;;;;-1.71;100.00;94435.91;5066131;28;19929;-75
2024/01/17 07:24:39;;;;;;;;;;;;;;;-1.70;100.00;94432.34;5048915;28;19955;-82
2024/01/17 07:27:05;;;;;;;;;;;;;;;-1.69;100.00;94439.09;5048155;28;19946;-80
2024/01/17 07:29:31;;;;;;;;;;;;;;;-1.69;100.00;94429.59;5048934;28;20220;-80
2024/01/17 07:31:57;;;;;;;;;;;;;;;-1.69;100.00;94426.25;5048038;28;19978;-80
2024/01/17 07:34:23;;;;;;;;;;;;;;;-1.66;100.00;94423.28;5066461;28;19939;-81
2024/01/17 07:36:50;;;;;;;;;;;;;;;-1.67;100.00;94414.00;5048814;28;19939;-81
2024/01/17 07:39:18;;;;;;;;;;;;;;;-1.63;100.00;94415.19;5048723;28;19935;-81
2024/01/17 07:41:44;;;;;;;;;;;;;;;-1.63;100.00;94412.63;5005228;28;19950;-78
2024/01/17 07:44:10;;;;;;;;;;;;;;;-1.67;100.00;94412.22;4988834;28;19962;-70
2024/01/17 07:46:36;;;;;;;;;;;;;;;-1.69;100.00;94414.19;4988567;28;19934;-74
2024/01/17 07:49:02;;;;;;;;;;;;;;;-1.67;100.00;94406.28;5005290;28;20101;-73
2024/01/17 07:51:28;;;;;;;;;;;;;;;-1.66;100.00;94408.66;5004665;28;19944;-73
2024/01/17 07:53:54;;;;;;;;;;;;;;;-1.66;100.00;94408.66;5004912;28;19934;-73
2024/01/17 07:56:19;;;;;;;;;;;;;;;-1.67;100.00;94403.72;4988845;28;20235;-73
2024/01/17 07:58:46;;;;;;;;;;;;;;;-1.60;100.00;94406.31;5004395;28;19932;-73
2024/01/17 08:01:12;;;;;;;;;;;;;;;-1.58;100.00;94389.69;5004307;28;19939;-73
2024/01/17 08:03:38;;;;;;;;;;;;;;;-1.53;100.00;94384.78;4971747;28;19955;-71
2024/01/17 08:06:05;;;;;;;;;;;;;;;-1.49;100.00;94386.00;4972510;28;19938;-71
2024/01/17 08:08:30;;;;;;;;;;;;;;;-1.47;100.00;94380.63;5004317;28;19949;-71
2024/01/17 08:10:56;;;;;;;;;;;;;;;-1.45;100.00;94369.19;5004659;28;19936;-71
2024/01/17 08:13:22;;;;;;;;;;;;;;;-1.44;100.00;94364.84;5050461;28;19942;-71
2024/01/17 08:15:48;;;;;;;;;;;;;;;-1.40;100.00;94357.53;5065323;28;19935;-71
2024/01/17 08:18:14;;;;;;;;;;;;;;;-1.38;100.00;94353.78;5064945;28;19959;-78
2024/01/17 08:20:40;;;;;;;;;;;;;;;-1.33;100.00;94355.75;5047325;28;19997;-68
2024/01/17 08:23:05;;;;;;;;;;;;;;;-1.30;100.00;94342.50;5047179;28;19999;-71
2024/01/17 08:25:32;;;;;;;;;;;;;;;-1.27;100.00;94339.56;5065113;28;19981;-71
2024/01/17 08:27:59;;;;;;;;;;;;;;;-1.23;100.00;94335.59;5047195;28;19937;-71
2024/01/17 08:30:25;;;;;;;;;;;;;;;-1.15;100.00;94334.63;5064839;28;19937;-70
2024/01/17 08:32:54;;;;;;;;;;;;;;;-1.11;100.00;94328.88;5065644;28;19935;-71
2024/01/17 08:35:20;;;;;;;;;;;;;;;-1.07;100.00;94318.97;5031286;28;19941;-70
2024/01/17 08:37:46;;;;;;;;;;;;;;;-1.01;100.00;94313.03;5064819;28;19931;-73
2024/01/17 08:40:12;;;;;;;;;;;;;;;-0.96;100.00;94308.09;5030882;28;20292;-69
2024/01/17 08:42:38;;;;;;;;;;;;;;;-0.92;100.00;94304.16;5031290;28;19936;-68
2024/01/17 08:45:05;;;;;;;;;;;;;;;-0.88;100.00;94289.91;5046716;28;19952;-68
2024/01/17 08:47:31;;;;;;;;;;;;;;;-0.84;100.00;94296.22;5046717;28;19944;-68
2024/01/17 08:50:00;;;;;;;;;;;;;;;-0.79;100.00;94294.84;5047352;28;19930;-68
2024/01/17 08:52:26;;;;;;;;;;;;;;;-0.75;100.00;94289.09;5064403;28;19952;-68
2024/01/17 08:54:54;;;;;;;;;;;;;;;-0.71;100.00;94279.97;5064037;28;19939;-73
2024/01/17 08:57:20;;;;;;;;;;;;;;;-0.69;100.00;94270.28;5047331;28;19980;-68
2024/01/17 08:59:46;;;;;;;;;;;;;;;-0.66;100.00;94269.06;5031118;28;19936;-70
2024/01/17 09:02:12;;;;;;;;;;;;;;;-0.64;100.00;94260.16;5030122;28;20036;-70
2024/01/17 09:04:37;;;;;;;;;;;;;;;-0.59;100.00;94269.03;5030819;28;19952;-70
2024/01/17 09:07:03;;;;;;;;;;;;;;;-0.53;100.00;94273.38;5064276;28;20119;-70
2024/01/17 09:09:29;;;;;;;;;;;;;;;0.02;100.00;94267.84;5064154;28;19956;-69
2024/01/17 09:11:55;;;;;;;;;;;;;;;0.97;100.00;94266.03;5064191;28;19933;-70
2024/01/17 09:14:23;;;;;;;;;;;;;;;1.34;100.00;94265.28;5046956;28;19935;-72
2024/01/17 09:16:52;;;;;;;;;;;;;;;1.32;100.00;94264.72;5046119;28;19979;-73
2024/01/17 09:19:20;;;;;;;;;;;;;;;1.19;100.00;94263.03;5064666;28;19945;-73
2024/01/17 09:21:47;;;;;;;;;;;;;;;1.05;100.00;94251.25;5046432;28;19938;-73
2024/01/17 09:24:13;;;;;;;;;;;;;;;0.86;100.00;94240.09;5064737;28;19956;-73
2024/01/17 09:26:38;;;;;;;;;;;;;;;0.73;100.00;94236.63;5047193;28;20155;-74
2024/01/17 09:29:04;;;;;;;;;;;;;;;0.63;100.00;94233.75;5046259;28;19930;-73
2024/01/17 09:31:30;;;;;;;;;;;;;;;0.55;100.00;94234.03;5063657;28;19941;-76
2024/01/17 09:33:56;;;;;;;;;;;;;;;0.49;100.00;94217.59;5064500;28;19932;-70
2024/01/17 09:36:22;;;;;;;;;;;;;;;0.47;100.00;94216.22;5046237;28;20146;-70
2024/01/17 09:38:48;;;;;;;;;;;;;;;0.44;100.00;94212.25;5046932;28;20123;-69
2024/01/17 09:41:13;;;;;;;;;;;;;;;0.44;100.00;94221.78;5046116;28;20021;-70
2024/01/17 09:43:40;;;;;;;;;;;;;;;0.44;100.00;94214.84;5045882;28;20222;-69
2024/01/17 09:46:12;;;;;;;;;;;;;;;0.45;100.00;94208.69;5064358;28;19959;-70
2024/01/17 09:48:39;;;;;;;;;;;;;;;0.53;100.00;94199.91;5046386;28;19935;-70
2024/01/17 09:51:04;;;;;;;;;;;;;;;0.58;100.00;94194.91;5064343;28;19946;-72
2024/01/17 09:53:31;;;;;;;;;;;;;;;0.59;100.00;94197.28;5063748;28;19935;-73
2024/01/17 09:56:00;;;;;;;;;;;;;;;0.58;100.00;94190.53;5045936;28;19937;-73
2024/01/17 09:58:28;;;;;;;;;;;;;;;0.56;100.00;94182.22;5045827;28;19944;-73
2024/01/17 10:00:55;;;;;;;;;;;;;;;0.53;100.00;94177.50;5063699;28;20243;-73
2024/01/17 10:03:22;;;;;;;;;;;;;;;0.53;100.00;94174.13;5063608;28;19936;-72
2024/01/17 10:05:50;;;;;;;;;;;;;;;0.53;100.00;94164.59;5064400;28;20219;-72
2024/01/17 10:08:17;;;;;;;;;;;;;;;0.53;100.00;94164.59;5064078;28;19954;-79
2024/01/17 10:10:43;;;;;;;;;;;;;;;0.53;100.00;94162.03;5063646;28;19933;-71
2024/01/17 10:13:11;;;;;;;;;;;;;;;0.54;100.00;94149.91;5045901;28;19934;-71
2024/01/17 10:15:44;;;;;;;;;;;;;;;0.54;100.00;94144.75;5029303;28;19939;-71
2024/01/17 10:18:11;;;;;;;;;;;;;;;0.55;100.00;94139.38;5063417;28;20118;-71
2024/01/17 10:20:37;;;;;;;;;;;;;;;0.56;100.00;94124.69;5064286;28;19938;-71
2024/01/17 10:23:03;;;;;;;;;;;;;;;0.57;100.00;94121.91;5021993;28;19938;-71
2024/01/17 10:25:41;;;;;;;;;;;;;;;0.57;100.00;94116.75;5022595;28;20248;-71
2024/01/17 10:28:08;;;;;;;;;;;;;;;0.57;100.00;94114.19;5022503;28;19930;-72
2024/01/17 10:30:37;;;;;;;;;;;;;;;0.56;100.00;94099.69;4989169;28;19937;-74
2024/01/17 10:33:03;;;;;;;;;;;;;;;0.55;100.00;94095.56;5022221;28;19940;-73
2024/01/17 10:35:30;;;;;;;;;;;;;;;0.59;100.00;94096.72;5022246;28;19937;-74
2024/01/17 10:37:56;;;;;;;;;;;;;;;0.62;100.00;94082.59;5022072;28;20130;-73
2024/01/17 10:40:22;;;;;;;;;;;;;;;0.64;100.00;94078.00;5021867;28;20004;-73
2024/01/17 10:43:02;;;;;;;;;;;;;;;0.66;100.00;94070.06;5022723;28;19945;-73
2024/01/17 10:45:32;;;;;;;;;;;;;;;0.68;100.00;94066.25;5025393;28;19958;-70
2024/01/17 10:47:58;;;;;;;;;;;;;;;0.71;100.00;94065.81;5025684;28;19944;-74
2024/01/17 10:50:24;;;;;;;;;;;;;;;0.71;100.00;94065.81;4993379;28;19935;-70
2024/01/17 10:52:52;;;;;;;;;;;;;;;0.70;100.00;94072.00;5025802;28;19931;-70
2024/01/17 10:55:21;;;;;;;;;;;;;;;0.68;100.00;94057.75;5066636;28;19943;-70
2024/01/17 10:57:49;;;;;;;;;;;;;;;0.67;100.00;94045.84;5067201;28;20108;-69
2024/01/17 11:00:17;;;;;;;;;;;;;;;0.66;100.00;94057.94;5066530;28;19926;-70
2024/01/17 11:02:43;;;;;;;;;;;;;;;0.68;100.00;94034.53;5067068;28;20121;-70
2024/01/17 11:05:11;;;;;;;;;;;;;;;0.70;100.00;94042.84;5066655;28;19956;-74
2024/01/17 11:07:37;;;;;;;;;;;;;;;0.70;100.00;94040.25;5066460;28;19944;-73
2024/01/17 11:10:04;;;;;;;;;;;;;;;0.72;100.00;94033.88;5048679;28;19926;-74
2024/01/17 11:12:33;;;;;;;;;;;;;;;0.73;100.00;94029.50;5066617;28;19940;-73
2024/01/17 11:15:00;;;;;;;;;;;;;;;0.75;100.00;94036.00;5031847;28;19935;-74
2024/01/17 11:17:28;;;;;;;;;;;;;;;0.77;100.00;94028.06;5066097;28;19965;-74
2024/01/17 11:19:54;;;;;;;;;;;;;;;0.78;100.00;94011.59;5066749;28;19937;-74
2024/01/17 11:22:21;;;;;;;;;;;;;;;0.81;100.00;94006.78;5066749;28;19934;-73
2024/01/17 11:24:56;;;;;;;;;;;;;;;0.83;100.00;93993.66;5066104;28;19948;-73
2024/01/17 11:27:33;;;;;;;;;;;;;;;0.86;100.00;93993.25;5066644;28;20245;-72
2024/01/17 11:30:03;;;;;;;;;;;;;;;0.92;100.00;93981.25;5049001;28;19942;-71
2024/01/17 11:32:31;;;;;;;;;;;;;;;1.00;100.00;93978.38;5066227;28;19937;-71
2024/01/17 11:34:57;;;;;;;;;;;;;;;1.08;100.00;93978.06;5066459;28;19934;-71
2024/01/17 11:37:30;;;;;;;;;;;;;;;1.14;100.00;93981.56;5066662;28;19929;-71
2024/01/17 11:39:56;;;;;;;;;;;;;;;1.20;100.00;93971.16;5025001;28;20060;-71
2024/01/17 11:42:22;;;;;;;;;;;;;;;1.25;100.00;93964.53;5025081;28;19930;-73
2024/01/17 11:44:50;;;;;;;;;;;;;;;1.31;100.00;93948.16;5007911;28;19958;-74
2024/01/17 11:47:22;;;;;;;;;;;;;;;1.37;100.00;93949.88;5008478;28;20225;-73
2024/01/17 11:49:49;;;;;;;;;;;;;;;1.40;100.00;93934.69;5007863;28;19945;-74
2024/01/17 11:52:24;;;;;;;;;;;;;;;1.45;100.00;93923.72;5007675;28;20167;-74
2024/01/17 11:54:50;;;;;;;;;;;;;;;1.47;100.00;93920.91;4991526;28;19944;-73
2024/01/17 11:57:16;;;;;;;;;;;;;;;1.49;100.00;93911.13;5024527;28;20140;-74
2024/01/17 11:59:42;;;;;;;;;;;;;;;1.48;100.00;93915.50;5024664;28;19939;-74
2024/01/17 12:02:28;;;;;;;;;;;;;;;1.49;100.00;93900.81;5023890;28;19935;-70
2024/01/17 12:04:56;;;;;;;;;;;;;;;1.50;100.00;93912.72;5024213;28;19964;-70
2024/01/17 12:07:22;;;;;;;;;;;;;;;1.52;100.00;93902.94;5007326;28;20153;-70
2024/01/17 12:09:50;;;;;;;;;;;;;;;1.51;100.00;93902.16;5024476;28;20016;-70
2024/01/17 12:12:21;;;;;;;;;;;;;;;1.50;100.00;93894.63;5065605;28;20114;-70
2024/01/17 12:14:48;;;;;;;;;;;;;;;1.52;100.00;93900.38;5065596;28;19936;-69
2024/01/17 12:17:14;;;;;;;;;;;;;;;1.57;100.00;93908.22;5064899;28;19970;-73
2024/01/17 12:19:40;;;;;;;;;;;;;;;1.57;100.00;93897.88;5047936;28;20223;-73
2024/01/17 12:22:06;;;;;;;;;;;;;;;1.56;100.00;93873.88;5065476;28;19994;-82
2024/01/17 12:24:32;;;;;;;;;;;;;;;1.58;100.00;93861.50;5047054;28;19956;-83
2024/01/17 12:26:58;;;;;;;;;;;;;;;1.62;100.00;93851.53;5047134;28;19939;-83
2024/01/17 12:29:23;;;;;;;;;;;;;;;1.63;100.00;93856.44;5065602;28;20151;-84
2024/01/17 12:31:49;;;;;;;;;;;;;;;1.66;100.00;93852.66;5047004;28;19943;-83
2024/01/17 12:34:15;;;;;;;;;;;;;;;1.71;100.00;93846.78;5064701;28;19936;-83
2024/01/17 12:36:41;;;;;;;;;;;;;;;1.75;100.00;93853.88;5064737;28;19939;-73